Thursday, July 31, 2014, 9:41 PM EDT

KGED, Georgetown Sussex Co Airport

Location: Georgetown, DE, United States Lat: 38.683
Local Time: 9:41 PM EDT ( 1:41 GMT) Lon: -75.367
Time Zone: US/Eastern Elev: 52 ft

Show me the last for .
Show Decoded

2014-07-31 20:54 METAR KGED 010054Z AUTO 16011KT 10SM CLR 23/18 A3014 RMK AO2 SLP206 T02330183 =
2014-07-31 19:54 METAR KGED 312354Z AUTO 17006KT 10SM CLR 25/17 A3013 RMK AO2 SLP202 T02500172
                 10294 20250 53007 =
2014-07-31 18:54 METAR KGED 312254Z AUTO 18008KT 10SM CLR 27/17 A3012 RMK AO2 SLP199 T02670167 =
2014-07-31 17:54 METAR KGED 312154Z AUTO 18008KT 10SM CLR 28/17 A3011 RMK AO2 SLP195 T02780167 =
2014-07-31 16:54 METAR KGED 312054Z AUTO 19008KT 10SM CLR 28/15 A3011 RMK AO2 SLP195 T02830150
                 58001 =
2014-07-31 15:54 METAR KGED 311954Z AUTO 18012KT 10SM CLR 29/15 A3011 RMK AO2 SLP195 T02890150 =
2014-07-31 14:54 METAR KGED 311854Z AUTO 18013KT 10SM SCT050 29/16 A3011 RMK AO2 SLP197 T02890161
                 =
2014-07-31 13:54 METAR KGED 311754Z AUTO 19009KT 10SM FEW047 28/16 A3011 RMK AO2 SLP196 T02830161
                 10289 20200 56008 =
2014-07-31 12:54 METAR KGED 311654Z AUTO 19009KT 10SM FEW045 28/17 A3012 RMK AO2 SLP198 T02830167
                 =
2014-07-31 11:54 METAR KGED 311554Z AUTO 18012KT 10SM CLR 28/18 A3013 RMK AO2 SLP200 T02780178 =
2014-07-31 10:54 METAR KGED 311454Z AUTO 20008KT 10SM SCT026 27/18 A3014 RMK AO2 SLP204 T02670183
                 50001 =
2014-07-31 10:52 METAR KGED 311452Z AUTO 20010KT 10SM SCT026 27/18 A3014 RMK AO2 =
2014-07-31 10:45 METAR KGED 311445Z AUTO 19010G17KT 10SM BKN026 26/18 A3014 RMK AO2 T02610183 =
2014-07-31 09:54 METAR KGED 311354Z AUTO 20009KT 10SM CLR 25/19 A3014 RMK AO2 SLP204 T02500189 =
2014-07-31 08:54 METAR KGED 311254Z AUTO 16010KT 9SM CLR 23/18 A3013 RMK AO2 SLP203 T02280183 =
2014-07-31 07:54 METAR KGED 311154Z AUTO 17008KT 8SM CLR 20/17 A3013 RMK AO2 SLP201 T02000167
                 10200 20156 51011 $ =
2014-07-31 06:54 METAR KGED 311054Z AUTO 16007KT 7SM CLR 18/15 A3012 RMK AO2 SLP198 T01780150 $ =
2014-07-31 05:54 METAR KGED 310954Z AUTO 00000KT 8SM CLR 16/13 A3011 RMK AO2 SLP194 T01560133 $ =
2014-07-31 04:54 METAR KGED 310854Z AUTO 17003KT 10SM CLR 16/13 A3010 RMK AO2 SLP190 T01610133
                 52002 $ =
2014-07-31 02:54 METAR KGED 310654Z AUTO 17006KT 10SM CLR 16/13 A3010 RMK AO2 SLP190 T01610133 $
                 =
2014-07-31 01:54 METAR KGED 310554Z AUTO 16006KT 10SM CLR 17/14 A3009 RMK AO2 SLP189 T01670139
                 10217 20156 53004 $ =
2014-07-31 00:54 METAR KGED 310454Z AUTO VRB04KT 10SM CLR 17/14 A3009 RMK AO2 SLP188 T01720144
                 402610144 $ =
2014-07-30 23:54 METAR KGED 310354Z AUTO 16007KT 10SM CLR 17/14 A3008 RMK AO2 SLP184 T01670144 $
                 =
2014-07-30 21:54 METAR KGED 310154Z AUTO 00000KT 10SM CLR 18/14 A3008 RMK AO2 SLP186 T01780144 $
                 =

Support USWX by starting your Amazon purchase here.